createdAt,value
2022-08-05T00:01:29.873Z,22.14
2022-08-05T00:06:39.748Z,22.01
2022-08-05T00:11:49.393Z,21.87
2022-08-05T00:16:57.800Z,21.83
2022-08-05T00:22:00.974Z,21.77
2022-08-05T00:27:04.569Z,21.69
2022-08-05T00:32:12.948Z,21.75
2022-08-05T00:37:18.249Z,21.79
2022-08-05T00:42:31.798Z,21.65
2022-08-05T00:47:56.729Z,21.99
2022-08-05T00:52:57.460Z,22.62
2022-08-05T00:57:59.846Z,22.77
2022-08-05T01:03:01.584Z,22.81
2022-08-05T01:08:42.369Z,22.86
2022-08-05T01:13:58.950Z,23.02
2022-08-05T01:19:11.281Z,22.94
2022-08-05T01:24:32.722Z,23.05
2022-08-05T01:29:39.084Z,23.04
2022-08-05T01:34:49.678Z,23.08
2022-08-05T01:39:53.394Z,23.09
2022-08-05T01:45:02.202Z,22.99
2022-08-05T01:50:07.230Z,22.96
2022-08-05T01:55:14.583Z,22.86
2022-08-05T02:00:18.619Z,22.87
2022-08-05T02:05:23.551Z,22.79
2022-08-05T02:10:28.704Z,22.63
2022-08-05T02:15:35.726Z,22.55
2022-08-05T02:20:47.432Z,22.39
2022-08-05T02:25:52.178Z,22.14
2022-08-05T02:30:59.030Z,22.21
2022-08-05T02:36:03.065Z,22.42
2022-08-05T02:41:17.277Z,22.56
2022-08-05T02:46:27.621Z,22.50
2022-08-05T02:52:03.966Z,22.65
2022-08-05T02:56:52.508Z,22.73
2022-08-05T03:01:58.217Z,22.72
2022-08-05T03:07:00.735Z,22.69
2022-08-05T03:12:02.896Z,22.60
2022-08-05T03:17:09.111Z,22.50
2022-08-05T03:22:16.619Z,22.46
2022-08-05T03:27:22.972Z,22.49
2022-08-05T03:32:33.797Z,22.27
2022-08-05T03:37:45.794Z,22.13
2022-08-05T03:42:52.052Z,22.08
2022-08-05T03:47:56.880Z,22.08
2022-08-05T03:55:50.894Z,22.17
2022-08-05T03:58:30.392Z,22.01
2022-08-05T04:03:38.131Z,21.91
2022-08-05T04:08:40.585Z,21.91
2022-08-05T04:13:50.281Z,22.28
2022-08-05T04:18:57.614Z,22.39
2022-08-05T04:24:06.591Z,22.67
2022-08-05T04:29:10.528Z,22.84
2022-08-05T04:34:19.685Z,22.97
2022-08-05T04:39:36.437Z,23.26
2022-08-05T04:44:38.492Z,23.46
2022-08-05T04:50:02.598Z,23.80
2022-08-05T04:55:14.784Z,24.15
2022-08-05T05:00:18.458Z,24.67
2022-08-05T05:05:29.166Z,24.90
2022-08-05T05:10:33.266Z,25.51
2022-08-05T05:15:57.634Z,25.89
2022-08-05T05:20:59.207Z,24.91
2022-08-05T05:26:02.481Z,24.42
2022-08-05T05:31:05.673Z,24.13
2022-08-05T05:36:15.688Z,24.20
2022-08-05T05:41:18.508Z,24.11
2022-08-05T05:46:20.665Z,23.79
2022-08-05T05:51:25.979Z,23.80
2022-08-05T05:56:33.065Z,23.82
2022-08-05T06:01:38.906Z,23.84
2022-08-05T06:06:46.659Z,23.88
2022-08-05T06:12:01.457Z,23.80
2022-08-05T06:17:22.109Z,23.70
2022-08-05T06:22:29.790Z,23.86
2022-08-05T06:28:10.686Z,24.95
2022-08-05T06:32:57.886Z,24.98
2022-08-05T06:38:04.278Z,24.58
2022-08-05T06:43:58.694Z,24.83
2022-08-05T06:48:55.797Z,25.05
2022-08-05T06:54:01.697Z,24.84
2022-08-05T06:59:09.527Z,24.48
2022-08-05T07:04:13.928Z,24.26
2022-08-05T07:09:17.398Z,23.91
2022-08-05T07:14:30.342Z,23.67
2022-08-05T07:24:58.994Z,23.70
2022-08-05T07:30:27.919Z,23.48
2022-08-05T07:36:02.606Z,23.33
2022-08-05T07:40:47.531Z,23.03
2022-08-05T07:45:58.753Z,22.98
2022-08-05T07:51:01.249Z,22.97
2022-08-05T07:56:59.930Z,23.23
2022-08-05T08:01:29.881Z,23.40
2022-08-05T08:06:32.310Z,23.32
2022-08-05T08:11:51.265Z,23.61
2022-08-05T08:16:57.352Z,24.31
2022-08-05T08:21:59.352Z,24.04
2022-08-05T08:27:07.120Z,24.00
2022-08-05T08:32:10.788Z,23.93
2022-08-05T08:37:13.110Z,24.02
2022-08-05T08:42:34.216Z,24.06
2022-08-05T08:48:05.917Z,24.03
2022-08-05T08:53:12.228Z,24.54
2022-08-05T08:58:16.993Z,24.39
2022-08-05T09:03:21.750Z,24.32
2022-08-05T09:08:26.519Z,24.35
2022-08-05T09:13:31.769Z,24.59
2022-08-05T09:18:44.292Z,24.71
2022-08-05T09:23:46.539Z,24.59
2022-08-05T09:28:59.177Z,25.24
2022-08-05T09:34:04.550Z,25.23
2022-08-05T09:39:16.540Z,24.92
2022-08-05T09:44:37.598Z,24.17
2022-08-05T09:50:00.823Z,23.69
2022-08-05T09:55:57.054Z,23.78
2022-08-05T10:00:30.930Z,24.12
2022-08-05T10:05:33.558Z,24.38
2022-08-05T10:10:38.727Z,25.17
2022-08-05T10:15:42.665Z,25.01
2022-08-05T10:20:48.407Z,24.51
2022-08-05T10:25:50.686Z,24.36
2022-08-05T10:32:52.720Z,24.28
2022-08-05T10:36:18.394Z,24.42
2022-08-05T10:41:46.436Z,25.22
2022-08-05T10:46:53.880Z,25.14
2022-08-05T10:52:00.237Z,25.33
2022-08-05T10:57:04.380Z,26.58
2022-08-05T11:02:14.969Z,26.85
2022-08-05T11:08:03.277Z,28.55
2022-08-05T11:12:55.740Z,28.86
2022-08-05T11:18:11.700Z,29.54
2022-08-05T11:24:05.317Z,28.82
2022-08-05T11:28:58.069Z,29.86
2022-08-05T11:34:09.124Z,29.43
2022-08-05T11:39:38.142Z,29.36
2022-08-05T11:44:53.943Z,29.13
2022-08-05T11:49:59.042Z,29.72
2022-08-05T11:55:07.687Z,30.34
2022-08-05T12:00:27.554Z,31.29
2022-08-05T12:05:39.966Z,30.01
2022-08-05T12:10:47.706Z,30.57
2022-08-05T12:15:50.906Z,30.83
2022-08-05T12:21:10.145Z,30.11
2022-08-05T12:26:12.493Z,30.16
2022-08-05T12:31:23.208Z,30.77
2022-08-05T12:36:37.933Z,31.17
2022-08-05T12:41:43.541Z,31.75
2022-08-05T12:46:54.193Z,31.38
2022-08-05T12:52:13.876Z,32.14
2022-08-05T12:57:19.740Z,30.28
2022-08-05T13:02:30.775Z,30.03
2022-08-05T13:07:59.325Z,31.28
2022-08-05T13:12:58.383Z,30.64
2022-08-05T13:18:01.350Z,31.14
2022-08-05T13:23:07.133Z,31.05
2022-08-05T13:28:10.629Z,30.62
2022-08-05T13:33:14.265Z,29.61
2022-08-05T13:38:38.514Z,29.44
2022-08-05T13:43:54.534Z,29.73
2022-08-05T13:49:00.883Z,29.57
2022-08-05T13:54:12.258Z,29.27
2022-08-05T13:59:19.452Z,29.75
2022-08-05T14:04:26.720Z,29.26
2022-08-05T14:09:30.569Z,29.65
2022-08-05T14:14:32.651Z,29.64
2022-08-05T14:19:55.393Z,29.65
2022-08-05T14:24:59.844Z,29.24
2022-08-05T14:30:01.687Z,29.21
2022-08-05T14:35:10.693Z,28.57
2022-08-05T14:40:16.836Z,28.52
2022-08-05T14:45:19.324Z,28.16
2022-08-05T14:50:21.010Z,28.11
2022-08-05T14:55:24.747Z,27.62
2022-08-05T15:00:29.427Z,27.13
2022-08-05T15:06:07.925Z,26.73
2022-08-05T15:10:56.244Z,26.44
2022-08-05T15:15:58.267Z,26.33
2022-08-05T15:21:07.437Z,26.18
2022-08-05T15:26:11.649Z,25.92
2022-08-05T15:31:13.770Z,25.54
2022-08-05T15:36:24.227Z,25.51
2022-08-05T15:41:56.443Z,25.48
2022-08-05T15:46:52.601Z,25.29
2022-08-05T15:52:04.492Z,25.15
2022-08-05T15:57:18.149Z,24.90
2022-08-05T16:02:25.592Z,24.90
2022-08-05T16:07:29.646Z,24.86
2022-08-05T16:12:33.521Z,24.91
2022-08-05T16:17:35.935Z,24.59
2022-08-05T16:22:38.341Z,24.23
2022-08-05T16:27:59.879Z,23.95
2022-08-05T16:33:05.009Z,23.60
2022-08-05T16:38:24.055Z,23.35
2022-08-05T16:43:32.190Z,23.42
2022-08-05T16:48:35.497Z,23.31
2022-08-05T16:54:04.180Z,23.12
2022-08-05T16:59:08.107Z,23.07
2022-08-05T17:04:10.365Z,22.14
2022-08-05T17:09:12.098Z,21.82
2022-08-05T17:14:34.307Z,21.60
2022-08-05T17:19:40.043Z,21.19
2022-08-05T17:24:46.413Z,20.95
2022-08-05T17:30:03.979Z,21.03
2022-08-05T17:35:07.421Z,20.85
2022-08-05T17:40:12.595Z,20.62
2022-08-05T17:45:18.019Z,20.55
2022-08-05T17:50:28.826Z,20.39
2022-08-05T17:55:38.001Z,20.44
2022-08-05T18:00:47.892Z,20.38
2022-08-05T18:05:53.595Z,20.18
2022-08-05T18:10:56.369Z,20.04
2022-08-05T18:16:00.498Z,20.08
2022-08-05T18:21:05.135Z,19.91
2022-08-05T18:26:18.179Z,19.88
2022-08-05T18:31:22.634Z,19.93
2022-08-05T18:36:28.047Z,19.90
2022-08-05T18:41:55.477Z,19.74
2022-08-05T18:46:54.110Z,19.75
2022-08-05T18:52:04.810Z,19.52
2022-08-05T18:57:10.940Z,19.48
2022-08-05T19:02:27.828Z,19.50
2022-08-05T19:07:42.329Z,19.51
2022-08-05T19:12:47.669Z,19.42
2022-08-05T19:17:59.024Z,19.52
2022-08-05T19:24:04.189Z,19.33
2022-08-05T19:28:34.507Z,19.24
2022-08-05T19:33:37.838Z,19.21
2022-08-05T19:38:42.215Z,19.18
2022-08-05T19:44:07.011Z,19.23
2022-08-05T19:49:12.488Z,19.14
2022-08-05T19:54:26.635Z,19.13
2022-08-05T20:00:00.590Z,19.05
2022-08-05T20:04:59.646Z,19.06
2022-08-05T20:10:04.746Z,19.09
2022-08-05T20:15:08.770Z,18.97
2022-08-05T20:20:13.099Z,18.85
2022-08-05T20:25:14.810Z,18.83
2022-08-05T20:30:18.248Z,18.71
2022-08-05T20:35:23.262Z,18.67
2022-08-05T20:40:25.692Z,18.51
2022-08-05T20:45:56.478Z,18.44
2022-08-05T20:50:52.576Z,18.39
2022-08-05T20:56:07.965Z,18.38
2022-08-05T21:01:11.381Z,18.32
2022-08-05T21:06:28.519Z,18.25
2022-08-05T21:12:06.588Z,18.21
2022-08-05T21:16:54.883Z,18.12
2022-08-05T21:21:58.165Z,18.09
2022-08-05T21:27:00.076Z,18.00
2022-08-05T21:32:03.529Z,17.95
2022-08-05T21:37:06.985Z,17.91
2022-08-05T21:42:30.775Z,17.79
2022-08-05T21:47:55.640Z,17.76
2022-08-05T21:52:59.173Z,17.70
2022-08-05T21:58:10.492Z,17.83
2022-08-05T22:03:13.850Z,17.81
2022-08-05T22:08:22.449Z,17.76
2022-08-05T22:14:34.342Z,17.82
2022-08-05T22:18:49.028Z,17.88
2022-08-05T22:24:01.190Z,17.83
2022-08-05T22:29:06.547Z,17.87
2022-08-05T22:34:08.530Z,17.86
2022-08-05T22:39:16.344Z,17.76
2022-08-05T22:44:19.235Z,17.78
2022-08-05T22:50:17.431Z,17.71
2022-08-05T22:54:48.951Z,17.59
2022-08-05T22:59:54.141Z,17.39
2022-08-05T23:04:56.456Z,17.27
2022-08-05T23:10:02.037Z,17.17
2022-08-05T23:15:09.012Z,17.07
2022-08-05T23:20:17.505Z,16.96
2022-08-05T23:25:51.905Z,16.78
2022-08-05T23:30:53.663Z,16.65
2022-08-05T23:35:56.665Z,16.57
2022-08-05T23:41:00.192Z,16.48
2022-08-05T23:46:05.077Z,16.39
2022-08-05T23:51:22.103Z,16.28
2022-08-05T23:56:27.323Z,16.16
